Time;durP1;ratioP1;P1;durP2;ratioP2;P2;SDS_P1;SDS_P2;PMS_P1;PMS_P2;Temp;Humidity;BMP_temperature;BMP_pressure;BME280_temperature;BME280_humidity;BME280_pressure;Samples;Min_cycle;Max_cycle;Signal;HPM_P1;HPM_P2
2023/12/13 00:00:35;;;;;;;7.60;1.90;;;;;;;6.88;100.00;99528.66;5010316;28;20086;-73
2023/12/13 00:03:02;;;;;;;9.15;2.15;;;;;;;6.98;100.00;99532.59;5010081;28;20476;-73
2023/12/13 00:05:29;;;;;;;5.28;1.40;;;;;;;7.12;100.00;99529.41;5009173;28;20101;-74
2023/12/13 00:07:55;;;;;;;10.40;2.28;;;;;;;7.02;100.00;99526.31;5001664;28;20058;-73
2023/12/13 00:10:22;;;;;;;5.43;1.80;;;;;;;7.14;100.00;99532.78;5010461;28;20085;-73
2023/12/13 00:12:49;;;;;;;6.43;2.22;;;;;;;7.21;100.00;99520.34;5008979;28;20085;-73
2023/12/13 00:15:16;;;;;;;10.48;2.53;;;;;;;7.26;100.00;99526.22;5009083;28;20046;-73
2023/12/13 00:17:43;;;;;;;7.25;1.55;;;;;;;7.06;100.00;99508.00;5009308;28;20084;-73
2023/12/13 00:20:10;;;;;;;5.22;1.80;;;;;;;7.18;100.00;99530.88;5010296;28;20435;-73
2023/12/13 00:22:36;;;;;;;5.70;1.70;;;;;;;7.00;100.00;99519.50;5009690;28;20435;-73
2023/12/13 00:25:03;;;;;;;6.30;1.98;;;;;;;7.10;100.00;99526.03;5007769;28;20092;-73
2023/12/13 00:27:30;;;;;;;8.77;1.70;;;;;;;7.23;100.00;99529.78;5009045;28;20049;-74
2023/12/13 00:29:57;;;;;;;2.63;1.30;;;;;;;7.27;100.00;99521.84;5007198;28;20131;-75
2023/12/13 00:32:23;;;;;;;5.05;1.50;;;;;;;7.22;100.00;99512.47;5006626;28;20051;-73
2023/12/13 00:34:50;;;;;;;5.03;1.50;;;;;;;7.31;100.00;99520.78;4995124;28;20392;-72
2023/12/13 00:37:17;;;;;;;8.88;2.03;;;;;;;7.11;100.00;99513.84;5006884;28;20534;-72
2023/12/13 00:39:43;;;;;;;7.60;1.60;;;;;;;7.18;100.00;99513.50;4992827;28;20085;-73
2023/12/13 00:42:12;;;;;;;7.03;1.90;;;;;;;7.28;100.00;99510.50;5003325;28;20054;-73
2023/12/13 00:44:39;;;;;;;7.82;1.70;;;;;;;7.17;100.00;99514.44;5008424;28;20046;-72
2023/12/13 00:47:06;;;;;;;9.27;2.25;;;;;;;7.07;100.00;99517.50;5009563;28;20054;-72
2023/12/13 00:49:33;;;;;;;10.50;2.00;;;;;;;7.10;100.00;99526.03;5010182;28;20502;-73
2023/12/13 00:52:00;;;;;;;6.45;1.60;;;;;;;7.11;100.00;99524.25;5009620;28;20046;-73
2023/12/13 00:54:26;;;;;;;6.13;1.73;;;;;;;6.96;100.00;99531.81;5008842;28;20057;-73
2023/12/13 00:56:53;;;;;;;6.80;1.95;;;;;;;7.13;100.00;99538.88;5009636;28;20056;-72
2023/12/13 00:59:20;;;;;;;9.68;2.25;;;;;;;7.12;100.00;99545.03;5008608;28;20450;-73
2023/12/13 01:01:46;;;;;;;4.95;1.63;;;;;;;7.18;100.00;99542.13;5007740;28;20046;-73
2023/12/13 01:04:13;;;;;;;7.07;2.85;;;;;;;7.11;100.00;99545.91;5000511;28;20476;-73
2023/12/13 01:06:40;;;;;;;5.50;1.95;;;;;;;6.98;100.00;99523.94;5010344;28;20062;-74
2023/12/13 01:09:08;;;;;;;7.82;2.35;;;;;;;6.98;100.00;99542.16;4992048;28;20054;-72
2023/12/13 01:11:35;;;;;;;9.13;2.20;;;;;;;7.05;100.00;99554.00;5008902;28;20049;-73
2023/12/13 01:14:06;;;;;;;8.32;2.00;;;;;;;7.11;100.00;99558.94;5005686;28;20128;-73
2023/12/13 01:16:33;;;;;;;7.05;2.25;;;;;;;7.08;100.00;99566.03;5000138;28;20096;-73
2023/12/13 01:19:00;;;;;;;5.63;1.70;;;;;;;7.16;100.00;99569.16;5009832;28;20645;-73
2023/12/13 01:21:28;;;;;;;11.88;2.15;;;;;;;7.12;100.00;99573.66;5009203;28;20472;-72
2023/12/13 01:23:55;;;;;;;6.57;2.20;;;;;;;6.92;100.00;99545.84;5002082;28;20363;-73
2023/12/13 01:26:22;;;;;;;9.40;2.00;;;;;;;7.12;100.00;99576.25;5001966;28;20484;-72
2023/12/13 01:28:49;;;;;;;7.35;2.17;;;;;;;7.02;100.00;99580.16;5009785;28;20053;-72
2023/12/13 01:31:17;;;;;;;9.13;1.92;;;;;;;7.08;100.00;99573.84;5009603;28;20053;-73
2023/12/13 01:33:44;;;;;;;5.97;1.92;;;;;;;7.16;100.00;99575.22;5007549;28;20100;-74
2023/12/13 01:36:11;;;;;;;8.77;2.15;;;;;;;7.09;100.00;99575.53;5008363;28;20135;-74
2023/12/13 01:38:38;;;;;;;6.82;1.80;;;;;;;7.15;100.00;99581.34;5009056;28;20542;-73
2023/12/13 01:41:05;;;;;;;9.25;2.80;;;;;;;7.21;100.00;99590.66;5007168;28;20483;-74
2023/12/13 01:43:43;;;;;;;10.48;1.88;;;;;;;7.17;100.00;99579.50;5002596;28;20129;-72
2023/12/13 01:46:12;;;;;;;4.35;1.48;;;;;;;7.36;100.00;99576.13;5008133;28;20050;-72
2023/12/13 01:48:39;;;;;;;4.72;1.33;;;;;;;7.34;100.00;99573.56;5009250;28;20053;-73
2023/12/13 01:51:07;;;;;;;3.83;1.50;;;;;;;7.31;100.00;99576.34;5007971;28;20054;-73
2023/12/13 01:53:36;;;;;;;3.85;1.30;;;;;;;7.29;100.00;99591.16;5006926;28;20046;-72
2023/12/13 01:56:05;;;;;;;5.75;1.80;;;;;;;7.27;100.00;99599.94;5008337;28;20526;-71
2023/12/13 01:58:34;;;;;;;7.97;2.10;;;;;;;7.07;100.00;99580.81;5008738;28;20473;-72
2023/12/13 02:01:00;;;;;;;6.75;2.45;;;;;;;7.30;100.00;99597.22;5004820;28;20046;-73
2023/12/13 02:03:27;;;;;;;10.25;2.88;;;;;;;7.38;100.00;99593.38;5003373;28;20452;-73
2023/12/13 02:05:54;;;;;;;10.52;2.70;;;;;;;7.40;100.00;99599.38;5002967;28;20577;-71
2023/12/13 02:08:22;;;;;;;13.55;3.63;;;;;;;7.22;100.00;99587.97;5008530;28;20543;-71
2023/12/13 02:10:49;;;;;;;20.80;3.50;;;;;;;7.09;100.00;99593.75;5006140;28;20099;-73
2023/12/13 02:13:16;;;;;;;15.98;4.43;;;;;;;7.21;100.00;99598.47;4993007;28;20049;-73
2023/12/13 02:15:44;;;;;;;10.27;3.08;;;;;;;7.06;100.00;99601.69;5011057;28;20503;-72
2023/12/13 02:18:14;;;;;;;12.02;3.22;;;;;;;7.18;100.00;99625.44;5004577;28;20491;-72
2023/12/13 02:20:42;;;;;;;11.50;2.70;;;;;;;7.17;100.00;99618.56;4994825;28;20061;-72
2023/12/13 02:23:09;;;;;;;13.07;2.97;;;;;;;7.12;100.00;99622.25;5011213;28;20492;-72
2023/12/13 02:25:44;;;;;;;13.18;2.83;;;;;;;7.21;100.00;99637.50;5012032;28;20054;-72
2023/12/13 02:28:11;;;;;;;13.93;3.42;;;;;;;7.28;100.00;99646.75;5011335;28;20169;-72
2023/12/13 02:30:41;;;;;;;14.43;2.58;;;;;;;7.29;100.00;99648.44;5011075;28;20056;-72
2023/12/13 02:33:08;;;;;;;12.48;3.50;;;;;;;7.46;100.00;99652.94;5010431;28;20388;-72
2023/12/13 02:35:35;;;;;;;10.23;2.70;;;;;;;7.41;100.00;99647.91;5012468;28;20057;-72
2023/12/13 02:38:01;;;;;;;11.13;3.20;;;;;;;7.25;100.00;99646.88;5012787;28;20637;-73
2023/12/13 02:40:28;;;;;;;13.80;3.22;;;;;;;7.43;100.00;99660.03;5012224;28;20447;-72
2023/12/13 02:42:55;;;;;;;12.95;3.20;;;;;;;7.27;100.00;99662.44;5011800;28;20071;-72
2023/12/13 02:45:22;;;;;;;9.30;2.58;;;;;;;7.35;100.00;99676.00;5016141;28;20105;-71
2023/12/13 02:47:52;;;;;;;15.05;2.83;;;;;;;7.41;100.00;99675.72;5010464;28;20141;-72
2023/12/13 02:50:20;;;;;;;15.10;3.25;;;;;;;7.39;100.00;99680.16;5010201;28;20045;-71
2023/12/13 02:52:46;;;;;;;15.68;3.20;;;;;;;7.40;100.00;99687.91;5011873;28;20050;-72
2023/12/13 02:55:13;;;;;;;16.13;3.95;;;;;;;7.47;100.00;99679.84;5004377;28;20062;-72
2023/12/13 02:57:40;;;;;;;11.43;3.08;;;;;;;7.45;100.00;99690.31;5012029;28;20061;-72
2023/12/13 03:00:08;;;;;;;11.65;2.65;;;;;;;7.45;100.00;99692.06;4992918;28;20046;-72
2023/12/13 03:02:35;;;;;;;8.18;2.15;;;;;;;7.57;100.00;99700.22;5009528;28;20503;-73
2023/12/13 03:05:03;;;;;;;8.25;2.47;;;;;;;7.53;100.00;99701.28;5000501;28;20053;-72
2023/12/13 03:07:30;;;;;;;11.38;3.22;;;;;;;7.50;100.00;99706.59;5009989;28;20049;-72
2023/12/13 03:09:58;;;;;;;11.07;3.00;;;;;;;7.51;100.00;99715.28;5007066;28;20056;-72
2023/12/13 03:12:24;;;;;;;13.70;2.92;;;;;;;7.41;100.00;99714.78;5010046;28;20058;-71
2023/12/13 03:14:51;;;;;;;10.70;2.90;;;;;;;7.20;100.00;99678.28;5006071;28;20050;-73
2023/12/13 03:17:18;;;;;;;10.75;3.40;;;;;;;7.43;100.00;99710.38;5009308;28;20069;-71
2023/12/13 03:19:44;;;;;;;10.02;2.63;;;;;;;7.51;100.00;99715.28;5010990;28;20056;-72
2023/12/13 03:22:11;;;;;;;9.43;2.97;;;;;;;7.47;100.00;99726.72;5010956;28;20045;-72
2023/12/13 03:24:39;;;;;;;11.98;2.33;;;;;;;7.50;100.00;99717.00;5006448;28;20076;-71
2023/12/13 03:27:05;;;;;;;9.98;2.30;;;;;;;7.50;100.00;99729.19;5010170;28;20050;-71
2023/12/13 03:29:32;;;;;;;16.83;2.75;;;;;;;7.36;100.00;99722.78;5008633;28;20133;-72
2023/12/13 03:31:59;;;;;;;10.20;2.50;;;;;;;7.63;100.00;99734.75;5008646;28;20057;-73
2023/12/13 03:34:25;;;;;;;9.27;1.95;;;;;;;7.68;100.00;99722.38;4999020;28;20054;-72
2023/12/13 03:36:52;;;;;;;11.77;2.30;;;;;;;7.69;100.00;99722.31;5011721;28;20562;-72
2023/12/13 03:39:19;;;;;;;9.13;2.30;;;;;;;7.63;100.00;99726.94;5011231;28;20460;-72
2023/12/13 03:41:45;;;;;;;9.73;2.20;;;;;;;7.53;100.00;99726.47;5010790;28;20064;-72
2023/12/13 03:44:12;;;;;;;8.73;2.72;;;;;;;7.51;100.00;99726.53;5009842;28;20057;-73
2023/12/13 03:46:39;;;;;;;13.40;3.13;;;;;;;7.50;100.00;99734.41;4993720;28;20050;-72
2023/12/13 03:49:07;;;;;;;10.02;2.20;;;;;;;7.56;100.00;99740.22;5010828;28;20132;-72
2023/12/13 03:51:34;;;;;;;13.73;3.15;;;;;;;7.47;100.00;99719.78;5011188;28;20103;-72
2023/12/13 03:54:01;;;;;;;11.38;2.72;;;;;;;7.64;100.00;99739.91;5002550;28;20377;-72
2023/12/13 03:56:29;;;;;;;6.95;2.83;;;;;;;7.58;100.00;99742.78;5009849;28;20053;-73
2023/12/13 03:58:56;;;;;;;11.57;3.33;;;;;;;7.58;100.00;99743.59;5010763;28;20053;-72
2023/12/13 04:01:23;;;;;;;13.02;2.70;;;;;;;7.61;100.00;99734.81;5009743;28;20042;-72
2023/12/13 04:03:50;;;;;;;6.93;2.08;;;;;;;7.77;100.00;99753.25;5007609;28;20057;-72
2023/12/13 04:06:17;;;;;;;9.32;2.15;;;;;;;7.77;100.00;99745.44;5010452;28;20368;-72
2023/12/13 04:08:44;;;;;;;9.70;2.25;;;;;;;7.68;100.00;99751.88;5010576;28;20096;-73
2023/12/13 04:11:10;;;;;;;8.82;2.35;;;;;;;7.75;100.00;99755.09;5010087;28;20050;-73
2023/12/13 04:13:37;;;;;;;11.20;2.67;;;;;;;7.43;100.00;99723.38;5003118;28;20348;-72
2023/12/13 04:16:04;;;;;;;5.82;1.80;;;;;;;7.69;100.00;99748.38;5003638;28;20060;-72
2023/12/13 04:18:31;;;;;;;6.88;1.70;;;;;;;7.65;100.00;99749.41;5010374;28;20049;-73
2023/12/13 04:20:58;;;;;;;8.40;1.92;;;;;;;7.68;100.00;99751.88;5010278;28;20054;-72
2023/12/13 04:23:24;;;;;;;11.40;2.05;;;;;;;7.71;100.00;99762.19;5006400;28;20054;-73
2023/12/13 04:25:51;;;;;;;6.05;1.77;;;;;;;7.70;100.00;99757.91;5000075;28;20052;-72
2023/12/13 04:28:18;;;;;;;10.02;2.40;;;;;;;7.62;100.00;99761.72;5009598;28;20129;-72
2023/12/13 04:30:45;;;;;;;8.07;2.42;;;;;;;7.47;100.00;99752.75;5009863;28;20050;-72
2023/12/13 04:33:12;;;;;;;10.57;2.78;;;;;;;7.48;100.00;99760.50;5007053;28;20046;-72
2023/12/13 04:35:39;;;;;;;8.27;2.05;;;;;;;7.49;100.00;99766.56;5006679;28;20052;-72
2023/12/13 04:38:05;;;;;;;12.73;3.15;;;;;;;7.48;100.00;99772.69;5009844;28;20141;-73
2023/12/13 04:40:32;;;;;;;9.00;2.80;;;;;;;7.50;100.00;99768.28;5008925;28;20445;-72
2023/12/13 04:43:00;;;;;;;5.95;1.88;;;;;;;7.57;100.00;99767.94;5009215;28;20042;-72
2023/12/13 04:45:27;;;;;;;7.15;2.38;;;;;;;7.59;100.00;99776.53;5004512;28;20053;-73
2023/12/13 04:47:54;;;;;;;6.93;1.90;;;;;;;7.59;100.00;99781.75;5008306;28;20086;-73
2023/12/13 04:50:24;;;;;;;10.65;2.38;;;;;;;7.52;100.00;99806.34;5009227;28;20048;-73
2023/12/13 04:52:51;;;;;;;9.93;2.60;;;;;;;7.52;100.00;99813.34;5008670;28;20551;-73
2023/12/13 04:55:18;;;;;;;9.57;2.65;;;;;;;7.37;100.00;99804.38;5008102;28;20049;-74
2023/12/13 04:57:45;;;;;;;9.63;2.75;;;;;;;7.12;100.00;99823.56;5009319;28;20064;-73
2023/12/13 05:00:12;;;;;;;9.82;2.15;;;;;;;6.77;100.00;99817.91;5008693;28;20590;-72
2023/12/13 05:02:39;;;;;;;8.10;1.85;;;;;;;6.44;100.00;99838.16;5004101;28;20105;-74
2023/12/13 05:05:06;;;;;;;6.05;1.95;;;;;;;6.30;100.00;99835.19;5002530;28;20050;-73
2023/12/13 05:07:34;;;;;;;10.57;2.50;;;;;;;6.22;100.00;99833.69;5009069;28;20054;-73
2023/12/13 05:10:02;;;;;;;7.38;1.60;;;;;;;6.39;100.00;99825.34;5010512;28;20835;-73
2023/12/13 05:12:28;;;;;;;7.25;1.80;;;;;;;6.43;100.00;99832.13;5006575;28;20058;-74
2023/12/13 05:14:55;;;;;;;8.05;2.00;;;;;;;6.30;100.00;99833.44;5007520;28;20496;-73
2023/12/13 05:17:21;;;;;;;6.32;2.50;;;;;;;6.45;100.00;99826.88;5004423;28;20050;-72
2023/12/13 05:19:48;;;;;;;4.25;1.65;;;;;;;6.38;100.00;99823.63;5007383;28;20053;-72
2023/12/13 05:22:17;;;;;;;5.35;1.85;;;;;;;6.47;100.00;99831.09;5008420;28;20061;-73
2023/12/13 05:24:44;;;;;;;4.13;1.30;;;;;;;6.51;100.00;99828.38;4998101;28;20085;-73
2023/12/13 05:27:10;;;;;;;6.47;1.90;;;;;;;6.51;100.00;99833.59;5008806;28;20053;-72
2023/12/13 05:29:37;;;;;;;7.32;1.80;;;;;;;6.57;100.00;99835.97;5008996;28;20057;-73
2023/12/13 05:32:04;;;;;;;5.22;1.80;;;;;;;6.52;100.00;99838.75;5009648;28;20475;-72
2023/12/13 05:34:30;;;;;;;9.18;1.65;;;;;;;6.60;100.00;99835.88;5008861;28;20053;-72
2023/12/13 05:36:57;;;;;;;6.57;1.60;;;;;;;6.64;100.00;99843.50;5009453;28;20149;-72
2023/12/13 05:39:24;;;;;;;8.10;1.80;;;;;;;6.81;100.00;99847.25;5009183;28;20225;-73
2023/12/13 05:41:50;;;;;;;5.30;1.67;;;;;;;6.77;100.00;99840.47;5008436;28;20072;-71
2023/12/13 05:44:17;;;;;;;6.80;2.00;;;;;;;6.83;100.00;99854.13;5006709;28;20042;-72
2023/12/13 05:46:44;;;;;;;6.00;1.58;;;;;;;6.70;100.00;99852.84;4992666;28;20050;-71
2023/12/13 05:49:10;;;;;;;6.93;2.70;;;;;;;6.77;100.00;99854.31;5012845;28;20132;-73
2023/12/13 05:51:38;;;;;;;7.63;2.03;;;;;;;6.81;100.00;99860.25;5012518;28;20757;-72
2023/12/13 05:54:05;;;;;;;7.40;1.70;;;;;;;6.72;100.00;99858.00;5011345;28;20151;-73
2023/12/13 05:56:32;;;;;;;5.57;1.60;;;;;;;6.72;100.00;99848.44;5005463;28;20069;-73
2023/12/13 05:58:59;;;;;;;8.13;1.92;;;;;;;6.63;100.00;99852.22;5012449;28;20509;-73
2023/12/13 06:01:26;;;;;;;9.23;1.85;;;;;;;6.72;100.00;99852.78;4995546;28;20131;-71
2023/12/13 06:03:53;;;;;;;7.88;1.70;;;;;;;6.65;100.00;99857.34;5006762;28;20426;-72
2023/12/13 06:06:20;;;;;;;10.27;1.98;;;;;;;6.59;100.00;99868.00;5000179;28;20073;-72
2023/12/13 06:08:47;;;;;;;7.00;1.92;;;;;;;6.57;100.00;99870.66;5011627;28;20530;-72
2023/12/13 06:11:13;;;;;;;7.10;2.30;;;;;;;6.56;100.00;99887.13;5009943;28;20042;-73
2023/12/13 06:13:41;;;;;;;7.93;2.15;;;;;;;6.61;100.00;99885.22;5009548;28;20416;-72
2023/12/13 06:16:12;;;;;;;9.50;3.25;;;;;;;6.69;100.00;99889.31;5009953;28;20057;-73
2023/12/13 06:18:39;;;;;;;5.20;2.08;;;;;;;6.60;100.00;99901.72;5001830;28;20053;-72
2023/12/13 06:21:07;;;;;;;6.13;2.80;;;;;;;6.74;100.00;99888.25;5010956;28;20419;-72
2023/12/13 06:23:35;;;;;;;9.45;3.13;;;;;;;6.81;100.00;99905.34;4993494;28;20080;-72
2023/12/13 06:26:02;;;;;;;8.95;2.28;;;;;;;6.90;100.00;99893.75;5011167;28;20046;-73
2023/12/13 06:28:29;;;;;;;8.48;2.08;;;;;;;6.91;100.00;99899.84;5011428;28;20042;-72
2023/12/13 06:30:56;;;;;;;7.13;2.35;;;;;;;6.90;100.00;99904.16;5011745;28;20100;-73
2023/12/13 06:33:22;;;;;;;6.07;1.77;;;;;;;6.98;100.00;99909.94;5007432;28;20407;-72
2023/12/13 06:35:49;;;;;;;9.20;2.28;;;;;;;6.91;100.00;99911.06;5010171;28;20140;-73
2023/12/13 06:38:16;;;;;;;10.38;2.42;;;;;;;7.05;100.00;99910.59;5010520;28;20050;-72
2023/12/13 06:40:42;;;;;;;7.53;2.03;;;;;;;7.02;100.00;99915.91;5005814;28;20056;-73
2023/12/13 06:43:09;;;;;;;5.10;1.80;;;;;;;7.01;100.00;99927.19;5005955;28;20089;-72
2023/12/13 06:45:36;;;;;;;8.48;2.35;;;;;;;6.85;100.00;99926.91;5006804;28;20076;-73
2023/12/13 06:48:03;;;;;;;8.48;1.90;;;;;;;6.98;100.00;99940.34;5008152;28;20100;-72
2023/12/13 06:50:30;;;;;;;4.70;1.63;;;;;;;7.02;100.00;99942.75;5009297;28;20060;-72
2023/12/13 06:52:57;;;;;;;5.63;2.08;;;;;;;6.96;100.00;99935.19;5004516;28;20434;-73
2023/12/13 06:55:23;;;;;;;7.53;1.90;;;;;;;6.93;100.00;99935.28;5000092;28;20069;-73
2023/12/13 06:57:50;;;;;;;6.25;1.80;;;;;;;6.93;100.00;99942.25;5005441;28;20144;-73
2023/12/13 07:00:21;;;;;;;6.88;1.98;;;;;;;6.75;100.00;99946.34;5008030;28;20060;-73
2023/12/13 07:02:48;;;;;;;7.45;2.05;;;;;;;6.74;100.00;99955.03;5009267;28;20053;-73
2023/12/13 07:05:15;;;;;;;6.78;2.15;;;;;;;6.74;100.00;99957.66;4999761;28;20471;-73
2023/12/13 07:07:42;;;;;;;4.53;1.60;;;;;;;6.69;100.00;99962.16;5006604;28;20082;-71
2023/12/13 07:10:09;;;;;;;8.35;3.13;;;;;;;6.56;100.00;99956.53;5001541;28;20066;-71
2023/12/13 07:12:36;;;;;;;8.57;1.90;;;;;;;6.53;100.00;99967.88;5000142;28;20046;-73
2023/12/13 07:15:03;;;;;;;5.15;1.80;;;;;;;6.40;100.00;99964.81;5004380;28;20043;-71
2023/12/13 07:17:30;;;;;;;5.97;1.70;;;;;;;6.45;100.00;99985.50;4997801;28;20101;-72
2023/12/13 07:19:57;;;;;;;4.97;1.80;;;;;;;6.41;100.00;99986.47;5001840;28;20041;-71
2023/12/13 07:22:23;;;;;;;6.80;2.08;;;;;;;6.27;100.00;99990.38;4998187;28;20116;-72
2023/12/13 07:24:50;;;;;;;3.92;1.80;;;;;;;6.21;100.00;99980.16;5006592;28;20054;-72
2023/12/13 07:27:17;;;;;;;7.00;1.83;;;;;;;6.24;100.00;99984.44;5005730;28;20138;-72
2023/12/13 07:29:44;;;;;;;5.40;1.70;;;;;;;6.38;100.00;99994.38;5005770;28;20486;-72
2023/12/13 07:32:10;;;;;;;7.00;2.33;;;;;;;6.28;100.00;99993.81;5007052;28;20045;-72
2023/12/13 07:34:37;;;;;;;7.82;2.33;;;;;;;6.21;100.00;100006.16;4998442;28;20165;-72
2023/12/13 07:37:04;;;;;;;7.78;2.75;;;;;;;6.21;100.00;100018.31;5009889;28;20072;-72
2023/12/13 07:39:31;;;;;;;10.15;2.88;;;;;;;6.07;100.00;100006.59;5010317;28;20053;-72
2023/12/13 07:41:58;;;;;;;7.95;3.10;;;;;;;6.08;100.00;100029.09;4992653;28;20050;-72
2023/12/13 07:44:26;;;;;;;12.23;2.95;;;;;;;5.99;100.00;100036.31;5009306;28;20050;-72
2023/12/13 07:46:53;;;;;;;17.80;3.25;;;;;;;5.84;100.00;100042.78;5001460;28;20070;-72
2023/12/13 07:49:20;;;;;;;9.50;2.33;;;;;;;5.88;100.00;100037.44;4998798;28;20449;-72
2023/12/13 07:51:47;;;;;;;7.72;2.50;;;;;;;5.98;100.00;100048.44;4999442;28;20465;-72
2023/12/13 07:54:16;;;;;;;7.95;2.35;;;;;;;5.99;100.00;100062.31;4985131;28;20056;-72
2023/12/13 07:56:45;;;;;;;9.63;2.42;;;;;;;6.06;100.00;100062.06;4997997;28;20145;-73
2023/12/13 07:59:12;;;;;;;9.80;2.83;;;;;;;5.84;100.00;100071.34;4997119;28;20592;-72
2023/12/13 08:01:39;;;;;;;10.82;2.47;;;;;;;5.85;100.00;100080.84;4996886;28;20069;-72
2023/12/13 08:04:05;;;;;;;10.30;2.60;;;;;;;5.87;100.00;100082.50;5005149;28;20045;-72
2023/12/13 08:06:33;;;;;;;6.57;1.70;;;;;;;5.89;100.00;100075.50;5004878;28;20526;-72
2023/12/13 08:09:02;;;;;;;7.93;2.20;;;;;;;5.79;100.00;100063.72;5005623;28;20049;-72
2023/12/13 08:11:28;;;;;;;8.98;2.85;;;;;;;6.01;100.00;100096.88;5001949;28;20476;-72
2023/12/13 08:13:55;;;;;;;8.40;2.45;;;;;;;5.97;100.00;100090.94;5003390;28;20042;-72
2023/12/13 08:16:23;;;;;;;7.57;2.47;;;;;;;5.99;100.00;100078.75;5004739;28;20058;-72
2023/12/13 08:18:50;;;;;;;8.15;2.10;;;;;;;6.15;100.00;100088.69;5007461;28;20509;-72
2023/12/13 08:21:16;;;;;;;10.32;2.60;;;;;;;6.08;100.00;100091.47;5007630;28;20082;-72
2023/12/13 08:23:43;;;;;;;11.88;3.35;;;;;;;5.92;100.00;100102.31;5001904;28;20046;-72
2023/12/13 08:26:12;;;;;;;8.85;2.65;;;;;;;6.04;100.00;100107.22;4986286;28;20050;-72
2023/12/13 08:28:39;;;;;;;11.30;2.60;;;;;;;6.15;100.00;100104.28;5007008;28;20046;-72
2023/12/13 08:31:07;;;;;;;5.38;1.90;;;;;;;6.17;100.00;100111.13;5007849;28;20286;-72
2023/12/13 08:33:46;;;;;;;5.60;1.83;;;;;;;6.25;100.00;100109.16;5003428;28;20480;-72
2023/12/13 08:36:13;;;;;;;7.30;1.90;;;;;;;6.23;100.00;100110.09;5007320;28;20081;-72
2023/12/13 08:38:40;;;;;;;7.18;2.10;;;;;;;6.21;100.00;100101.50;5011064;28;20050;-72
2023/12/13 08:41:08;;;;;;;9.90;1.83;;;;;;;6.23;100.00;100097.09;4993764;28;20506;-72
2023/12/13 08:43:35;;;;;;;9.57;2.20;;;;;;;6.27;100.00;100107.38;5007061;28;20080;-72
2023/12/13 08:46:02;;;;;;;6.70;2.17;;;;;;;6.22;100.00;100109.25;5009869;28;20107;-72
2023/12/13 08:48:30;;;;;;;7.47;1.90;;;;;;;6.25;100.00;100119.56;5007878;28;20046;-72
2023/12/13 08:50:58;;;;;;;6.25;2.00;;;;;;;6.36;100.00;100132.25;5010595;28;20133;-72
2023/12/13 08:53:25;;;;;;;6.13;2.10;;;;;;;6.18;100.00;100131.03;5007474;28;20092;-72
2023/12/13 08:55:51;;;;;;;7.70;2.42;;;;;;;6.21;100.00;100136.13;5008624;28;20038;-72
2023/12/13 08:58:18;;;;;;;8.95;2.47;;;;;;;6.30;100.00;100129.81;5010742;28;20045;-72
2023/12/13 09:00:45;;;;;;;5.00;1.70;;;;;;;6.30;100.00;100131.56;5010084;28;20585;-72
2023/12/13 09:03:12;;;;;;;9.85;2.58;;;;;;;6.21;100.00;100123.13;5008647;28;20195;-72
2023/12/13 09:05:38;;;;;;;7.68;1.92;;;;;;;6.34;100.00;100146.16;5004846;28;20148;-72
2023/12/13 09:08:05;;;;;;;7.13;1.90;;;;;;;6.38;100.00;100143.44;5007261;28;20075;-72
2023/12/13 09:10:34;;;;;;;8.30;1.90;;;;;;;6.32;100.00;100141.03;5010268;28;20054;-72
2023/12/13 09:13:02;;;;;;;5.82;1.70;;;;;;;6.34;100.00;100144.44;5009728;28;20092;-72
2023/12/13 09:15:31;;;;;;;7.57;2.47;;;;;;;6.34;100.00;100140.97;5001934;28;20069;-72
2023/12/13 09:17:58;;;;;;;7.03;2.03;;;;;;;6.39;100.00;100149.50;5006441;28;20060;-72
2023/12/13 09:20:24;;;;;;;6.22;1.90;;;;;;;6.41;100.00;100148.56;4993205;28;20062;-72
2023/12/13 09:22:52;;;;;;;10.90;2.17;;;;;;;6.44;100.00;100158.84;5014209;28;20046;-72
2023/12/13 09:25:18;;;;;;;9.82;2.30;;;;;;;6.44;100.00;100165.81;5013572;28;20054;-72
2023/12/13 09:27:46;;;;;;;10.82;2.10;;;;;;;6.44;100.00;100171.00;5013877;28;20133;-72
2023/12/13 09:30:13;;;;;;;7.88;2.08;;;;;;;6.44;100.00;100171.00;5014276;28;20499;-72
2023/12/13 09:32:41;;;;;;;5.75;1.80;;;;;;;6.51;100.00;100175.13;4996266;28;20593;-72
2023/12/13 09:35:13;;;;;;;6.03;1.75;;;;;;;6.46;100.00;100167.50;5000619;28;20136;-72
2023/12/13 09:37:41;;;;;;;8.75;1.98;;;;;;;6.48;100.00;100172.66;4996060;28;20049;-72
2023/12/13 09:40:15;;;;;;;11.15;2.78;;;;;;;6.23;100.00;100175.09;5013901;28;20058;-72
2023/12/13 09:42:47;;;;;;;13.07;2.47;;;;;;;6.24;100.00;100190.66;5013680;28;20045;-72
2023/12/13 09:45:22;;;;;;;13.48;2.83;;;;;;;6.00;100.00;100191.31;5012430;28;20081;-72
2023/12/13 09:47:52;;;;;;;10.85;2.95;;;;;;;5.89;100.00;100205.41;5013554;28;20149;-72
2023/12/13 09:50:22;;;;;;;8.07;2.70;;;;;;;5.67;100.00;100192.16;5013727;28;20054;-72
2023/12/13 09:52:50;;;;;;;10.32;2.20;;;;;;;5.68;100.00;100203.41;5013190;28;20054;-72
2023/12/13 09:55:17;;;;;;;6.40;2.58;;;;;;;5.79;100.00;100185.81;5004181;28;20454;-72
2023/12/13 09:57:44;;;;;;;8.98;2.35;;;;;;;6.02;100.00;100200.81;5012090;28;20046;-72
2023/12/13 10:00:14;;;;;;;6.95;2.00;;;;;;;5.95;100.00;100188.84;4996013;28;20053;-72
2023/12/13 10:02:41;;;;;;;7.20;2.03;;;;;;;6.11;100.00;100202.31;5013425;28;20042;-72
2023/12/13 10:05:10;;;;;;;5.55;1.70;;;;;;;6.11;100.00;100194.50;5014986;28;20500;-72
2023/12/13 10:07:38;;;;;;;6.68;1.90;;;;;;;6.21;100.00;100210.69;5013002;28;20045;-72
2023/12/13 10:10:06;;;;;;;7.10;2.13;;;;;;;6.18;100.00;100223.75;5012818;28;20050;-72
2023/12/13 10:12:35;;;;;;;9.00;2.03;;;;;;;6.17;100.00;100219.47;5013039;28;20427;-72
2023/12/13 10:15:11;;;;;;;4.88;1.48;;;;;;;6.23;100.00;100230.56;5004755;28;20054;-72
2023/12/13 10:17:39;;;;;;;6.10;2.80;;;;;;;6.18;100.00;100221.16;5009599;28;20129;-72
2023/12/13 10:20:09;;;;;;;9.07;2.20;;;;;;;6.21;100.00;100231.47;5013284;28;20116;-72
2023/12/13 10:22:36;;;;;;;9.18;1.92;;;;;;;6.21;100.00;100224.53;5013152;28;20519;-72
2023/12/13 10:25:04;;;;;;;9.98;2.17;;;;;;;6.24;100.00;100237.44;5005480;28;20500;-72
2023/12/13 10:27:31;;;;;;;5.32;1.73;;;;;;;6.32;100.00;100237.25;5012752;28;20503;-72
2023/12/13 10:29:59;;;;;;;6.35;2.03;;;;;;;6.38;100.00;100244.03;5013262;28;20125;-72
2023/12/13 10:32:26;;;;;;;5.78;2.00;;;;;;;6.40;100.00;100245.66;5011163;28;20072;-72
2023/12/13 10:34:53;;;;;;;5.38;1.85;;;;;;;6.45;100.00;100250.75;5012442;28;20451;-72
2023/12/13 10:37:24;;;;;;;7.05;1.95;;;;;;;6.52;100.00;100256.63;5013429;28;20137;-72
2023/12/13 10:39:55;;;;;;;6.95;1.95;;;;;;;6.60;100.00;100263.28;5012892;28;20053;-72
2023/12/13 10:42:24;;;;;;;6.95;1.95;;;;;;;6.67;100.00;100260.53;4995183;28;20395;-72
2023/12/13 10:44:51;;;;;;;9.43;1.85;;;;;;;6.71;100.00;100270.81;4995011;28;20609;-72
2023/12/13 10:47:23;;;;;;;11.93;2.33;;;;;;;6.64;100.00;100272.75;5013078;28;20107;-72
2023/12/13 10:49:54;;;;;;;8.90;1.85;;;;;;;6.75;100.00;100276.78;5011894;28;20046;-72
2023/12/13 10:52:22;;;;;;;8.48;1.92;;;;;;;6.69;100.00;100274.34;5012386;28;20038;-72
2023/12/13 10:54:50;;;;;;;8.75;2.00;;;;;;;6.73;100.00;100284.63;5007337;28;20045;-73
2023/12/13 10:57:17;;;;;;;6.78;1.60;;;;;;;6.75;100.00;100295.00;5013203;28;20399;-71
2023/12/13 10:59:45;;;;;;;9.18;2.00;;;;;;;6.67;100.00;100292.59;5012429;28;20365;-72
2023/12/13 11:02:15;;;;;;;8.75;2.38;;;;;;;6.71;100.00;100303.78;5008798;28;20403;-72
2023/12/13 11:04:45;;;;;;;6.60;1.98;;;;;;;6.70;100.00;100300.31;5008158;28;20156;-72
2023/12/13 11:07:12;;;;;;;9.23;2.20;;;;;;;6.68;100.00;100303.88;4999315;28;20078;-72
2023/12/13 11:09:53;;;;;;;8.73;2.42;;;;;;;6.71;100.00;100299.44;5001301;28;20414;-72
2023/12/13 11:12:20;;;;;;;5.43;1.50;;;;;;;6.81;100.00;100298.25;5011860;28;20050;-72
2023/12/13 11:14:51;;;;;;;8.63;2.97;;;;;;;6.89;100.00;100304.97;5007931;28;20077;-72
2023/12/13 11:17:20;;;;;;;9.52;2.00;;;;;;;6.88;100.00;100292.88;4994982;28;20081;-72
2023/12/13 11:19:47;;;;;;;12.48;2.47;;;;;;;6.71;100.00;100282.94;5011913;28;20056;-72
2023/12/13 11:22:14;;;;;;;7.55;1.88;;;;;;;6.83;100.00;100298.22;5011665;28;20038;-72
2023/12/13 11:24:41;;;;;;;6.50;1.80;;;;;;;6.86;100.00;100295.53;5001288;28;20061;-72
2023/12/13 11:27:13;;;;;;;7.57;2.08;;;;;;;6.99;100.00;100303.81;5012356;28;20054;-72
2023/12/13 11:29:45;;;;;;;9.20;1.90;;;;;;;6.99;100.00;100298.63;5005770;28;20054;-72